Time;durP1;ratioP1;P1;durP2;ratioP2;P2;SDS_P1;SDS_P2;PMS_P1;PMS_P2;Temp;Humidity;BMP_temperature;BMP_pressure;BME280_temperature;BME280_humidity;BME280_pressure;Samples;Min_cycle;Max_cycle;Signal;HPM_P1;HPM_P2
2024/01/20 00:00:59;;;;;;;33.10;20.40;;;;;;;;;;780682;179;919742;-64
2024/01/20 00:03:24;;;;;;;45.87;20.83;;;;;;;;;;774063;179;918325;-64
2024/01/20 00:05:50;;;;;;;30.60;20.23;;;;;;;;;;774055;179;921567;-64
2024/01/20 00:08:16;;;;;;;31.50;21.00;;;;;;;;;;772924;179;917725;-66
2024/01/20 00:10:42;;;;;;;36.10;19.63;;;;;;;;;;780288;180;922159;-64
2024/01/20 00:13:08;;;;;;;34.03;19.30;;;;;;;;;;774035;180;917037;-64
2024/01/20 00:15:34;;;;;;;35.03;20.58;;;;;;;;;;774671;179;916943;-66
2024/01/20 00:17:59;;;;;;;29.57;17.90;;;;;;;;;;779674;179;916240;-65
2024/01/20 00:20:25;;;;;;;36.22;18.15;;;;;;;;;;771726;180;923575;-64
2024/01/20 00:22:52;;;;;;;34.53;19.67;;;;;;;;;;770810;180;917865;-64
2024/01/20 00:25:17;;;;;;;23.97;17.60;;;;;;;;;;776858;179;924741;-65
2024/01/20 00:27:43;;;;;;;27.07;17.10;;;;;;;;;;771965;179;915834;-64
2024/01/20 00:30:09;;;;;;;32.03;19.13;;;;;;;;;;771830;180;916342;-63
2024/01/20 00:32:36;;;;;;;34.15;18.77;;;;;;;;;;781685;180;918961;-65
2024/01/20 00:35:02;;;;;;;31.90;19.03;;;;;;;;;;775477;179;910368;-64
2024/01/20 00:37:27;;;;;;;32.67;19.53;;;;;;;;;;772528;180;919102;-65
2024/01/20 00:39:53;;;;;;;33.80;19.43;;;;;;;;;;772299;179;917942;-64
2024/01/20 00:42:18;;;;;;;32.90;19.53;;;;;;;;;;778242;179;911913;-64
2024/01/20 00:44:44;;;;;;;38.85;19.42;;;;;;;;;;771145;179;918385;-64
2024/01/20 00:47:10;;;;;;;34.43;19.60;;;;;;;;;;773577;179;918930;-64
2024/01/20 00:49:36;;;;;;;31.67;20.10;;;;;;;;;;779629;177;919042;-64
2024/01/20 00:52:02;;;;;;;35.23;22.13;;;;;;;;;;757350;181;918043;-64
2024/01/20 00:54:28;;;;;;;29.90;20.30;;;;;;;;;;771301;179;919207;-64
2024/01/20 00:56:54;;;;;;;35.27;20.60;;;;;;;;;;778241;179;925226;-66
2024/01/20 00:59:19;;;;;;;41.10;19.42;;;;;;;;;;771076;180;919388;-64
2024/01/20 01:01:46;;;;;;;27.13;18.07;;;;;;;;;;772849;180;915233;-65
2024/01/20 01:04:11;;;;;;;26.07;17.57;;;;;;;;;;772277;179;918599;-64
2024/01/20 01:06:37;;;;;;;27.37;16.80;;;;;;;;;;778058;179;917675;-65
2024/01/20 01:09:03;;;;;;;28.10;18.42;;;;;;;;;;773205;179;919998;-64
2024/01/20 01:11:29;;;;;;;23.60;17.70;;;;;;;;;;763446;181;918360;-64
2024/01/20 01:13:54;;;;;;;27.00;16.27;;;;;;;;;;776848;179;1118624;-65
2024/01/20 01:16:20;;;;;;;28.63;17.20;;;;;;;;;;775507;179;918759;-65
2024/01/20 01:18:46;;;;;;;29.92;19.02;;;;;;;;;;774344;179;919298;-64
2024/01/20 01:21:12;;;;;;;28.67;17.00;;;;;;;;;;778505;179;1020925;-65
2024/01/20 01:23:38;;;;;;;35.45;18.10;;;;;;;;;;777170;179;918685;-64
2024/01/20 01:26:04;;;;;;;30.67;16.60;;;;;;;;;;771600;179;934453;-64
2024/01/20 01:28:30;;;;;;;27.60;17.20;;;;;;;;;;779143;180;914191;-64
2024/01/20 01:30:55;;;;;;;26.57;16.63;;;;;;;;;;776657;179;919490;-66
2024/01/20 01:33:21;;;;;;;32.00;16.80;;;;;;;;;;758904;182;922373;-65
2024/01/20 01:35:47;;;;;;;24.93;15.37;;;;;;;;;;770505;179;918221;-65
2024/01/20 01:38:13;;;;;;;27.53;15.37;;;;;;;;;;774764;179;918432;-65
2024/01/20 01:40:39;;;;;;;24.53;16.80;;;;;;;;;;766014;180;918855;-65
2024/01/20 01:43:05;;;;;;;25.30;15.03;;;;;;;;;;773132;179;918995;-65
2024/01/20 01:45:30;;;;;;;33.13;17.43;;;;;;;;;;777940;179;922031;-65
2024/01/20 01:47:56;;;;;;;25.53;14.13;;;;;;;;;;772971;179;919114;-64
2024/01/20 01:50:22;;;;;;;31.90;16.63;;;;;;;;;;773391;179;918106;-65
2024/01/20 01:52:48;;;;;;;24.60;15.27;;;;;;;;;;777933;179;918375;-64
2024/01/20 01:55:14;;;;;;;39.13;17.37;;;;;;;;;;773600;180;924891;-64
2024/01/20 01:57:40;;;;;;;30.60;17.70;;;;;;;;;;773870;179;921255;-65
2024/01/20 02:00:06;;;;;;;30.80;15.30;;;;;;;;;;772330;180;920337;-65
2024/01/20 02:02:32;;;;;;;24.27;15.20;;;;;;;;;;773576;179;920298;-65
2024/01/20 02:04:58;;;;;;;25.50;16.67;;;;;;;;;;771286;180;915614;-65
2024/01/20 02:07:23;;;;;;;28.73;16.27;;;;;;;;;;771475;180;1015233;-65
2024/01/20 02:09:49;;;;;;;29.70;16.60;;;;;;;;;;778780;180;923814;-66
2024/01/20 02:12:15;;;;;;;23.10;14.20;;;;;;;;;;772529;180;919493;-64
2024/01/20 02:14:42;;;;;;;28.40;16.63;;;;;;;;;;772815;179;919762;-64
2024/01/20 02:17:08;;;;;;;25.80;15.20;;;;;;;;;;763576;181;919420;-64
2024/01/20 02:19:38;;;;;;;21.57;13.47;;;;;;;;;;772620;180;917392;-64
2024/01/20 02:22:04;;;;;;;29.73;15.90;;;;;;;;;;772638;178;919384;-64
2024/01/20 02:24:30;;;;;;;23.03;13.60;;;;;;;;;;774826;179;922163;-64
2024/01/20 02:26:56;;;;;;;23.20;12.77;;;;;;;;;;780511;179;919317;-65
2024/01/20 02:29:22;;;;;;;21.03;13.57;;;;;;;;;;781844;178;916519;-64
2024/01/20 02:31:48;;;;;;;22.03;12.93;;;;;;;;;;770157;179;930550;-64
2024/01/20 02:34:13;;;;;;;23.57;13.13;;;;;;;;;;780576;179;920316;-64
2024/01/20 02:36:39;;;;;;;23.57;14.43;;;;;;;;;;774036;180;918571;-64
2024/01/20 02:39:05;;;;;;;28.70;14.53;;;;;;;;;;773303;179;921679;-65
2024/01/20 02:41:31;;;;;;;26.60;11.57;;;;;;;;;;778578;180;916931;-65
2024/01/20 02:43:57;;;;;;;24.87;13.50;;;;;;;;;;771039;180;918814;-65
2024/01/20 02:46:23;;;;;;;25.90;14.23;;;;;;;;;;773459;179;918944;-64
2024/01/20 02:48:49;;;;;;;26.10;14.93;;;;;;;;;;771633;180;1017524;-65
2024/01/20 02:51:15;;;;;;;21.67;13.03;;;;;;;;;;775433;179;920852;-65
2024/01/20 02:53:40;;;;;;;25.27;13.10;;;;;;;;;;772668;179;922178;-65
2024/01/20 02:56:06;;;;;;;22.00;11.77;;;;;;;;;;773325;179;916170;-64
2024/01/20 02:58:32;;;;;;;28.37;14.27;;;;;;;;;;778460;180;915299;-65
2024/01/20 03:01:00;;;;;;;23.27;13.13;;;;;;;;;;776890;180;915991;-64
2024/01/20 03:03:24;;;;;;;26.17;13.53;;;;;;;;;;773471;180;919551;-65
2024/01/20 03:05:50;;;;;;;20.83;13.37;;;;;;;;;;776475;180;919898;-65
2024/01/20 03:08:15;;;;;;;23.83;13.67;;;;;;;;;;771841;180;919809;-65
2024/01/20 03:10:41;;;;;;;22.37;13.17;;;;;;;;;;772057;180;919536;-65
2024/01/20 03:13:07;;;;;;;20.47;11.23;;;;;;;;;;778314;180;918071;-64
2024/01/20 03:15:33;;;;;;;26.00;12.50;;;;;;;;;;772872;180;918472;-66
2024/01/20 03:17:59;;;;;;;20.53;12.77;;;;;;;;;;773365;180;919216;-65
2024/01/20 03:20:25;;;;;;;22.67;12.30;;;;;;;;;;772433;180;944669;-65
2024/01/20 03:22:51;;;;;;;27.37;11.67;;;;;;;;;;779491;180;919901;-65
2024/01/20 03:25:16;;;;;;;22.60;11.40;;;;;;;;;;774041;179;921107;-66
2024/01/20 03:27:42;;;;;;;21.85;12.60;;;;;;;;;;771185;179;1020661;-65
2024/01/20 03:30:08;;;;;;;22.67;13.60;;;;;;;;;;777086;180;918618;-64
2024/01/20 03:32:34;;;;;;;25.90;12.27;;;;;;;;;;765096;179;914432;-64
2024/01/20 03:35:00;;;;;;;22.80;12.85;;;;;;;;;;769796;179;918762;-65
2024/01/20 03:37:26;;;;;;;21.20;11.50;;;;;;;;;;778647;179;922391;-65
2024/01/20 03:39:52;;;;;;;23.03;12.33;;;;;;;;;;775071;179;919626;-64
2024/01/20 03:42:18;;;;;;;19.83;12.23;;;;;;;;;;774070;179;930875;-65
2024/01/20 03:44:44;;;;;;;26.43;11.80;;;;;;;;;;773903;179;917802;-65
2024/01/20 03:47:09;;;;;;;21.20;13.50;;;;;;;;;;772668;179;919231;-64
2024/01/20 03:49:35;;;;;;;22.93;13.33;;;;;;;;;;765734;180;919123;-65
2024/01/20 03:52:01;;;;;;;23.37;13.90;;;;;;;;;;774914;179;919501;-64
2024/01/20 03:54:27;;;;;;;26.20;14.93;;;;;;;;;;779598;179;919977;-64
2024/01/20 03:56:53;;;;;;;25.80;12.73;;;;;;;;;;769973;177;918794;-64
2024/01/20 03:59:19;;;;;;;21.17;13.40;;;;;;;;;;768426;179;918945;-65
2024/01/20 04:01:44;;;;;;;24.30;12.27;;;;;;;;;;777997;179;885738;-64
2024/01/20 04:04:10;;;;;;;22.60;15.87;;;;;;;;;;773361;179;941239;-65
2024/01/20 04:06:36;;;;;;;21.50;12.80;;;;;;;;;;772698;179;919823;-65
2024/01/20 04:09:03;;;;;;;30.17;13.80;;;;;;;;;;776819;180;1122042;-64
2024/01/20 04:11:28;;;;;;;24.63;14.30;;;;;;;;;;769824;177;927021;-64
2024/01/20 04:13:54;;;;;;;20.33;13.37;;;;;;;;;;760162;180;917794;-65
2024/01/20 04:16:19;;;;;;;23.90;14.17;;;;;;;;;;771122;180;948723;-65
2024/01/20 04:18:45;;;;;;;28.13;14.60;;;;;;;;;;773876;180;918999;-65
2024/01/20 04:21:11;;;;;;;28.63;14.80;;;;;;;;;;775040;178;918836;-65
2024/01/20 04:23:37;;;;;;;30.23;16.30;;;;;;;;;;771698;180;929815;-64
2024/01/20 04:26:03;;;;;;;24.43;12.80;;;;;;;;;;776862;180;919605;-64
2024/01/20 04:28:29;;;;;;;23.65;14.10;;;;;;;;;;772120;180;919160;-62
2024/01/20 04:30:55;;;;;;;30.03;16.73;;;;;;;;;;772355;179;918395;-64
2024/01/20 04:33:20;;;;;;;21.63;14.13;;;;;;;;;;778881;180;918839;-64
2024/01/20 04:35:46;;;;;;;25.67;13.93;;;;;;;;;;773562;179;921739;-64
2024/01/20 04:38:12;;;;;;;25.50;13.70;;;;;;;;;;772351;179;924753;-64
2024/01/20 04:40:38;;;;;;;23.00;13.35;;;;;;;;;;777839;179;944614;-64
2024/01/20 04:43:04;;;;;;;23.27;13.50;;;;;;;;;;770762;180;919155;-64
2024/01/20 04:45:30;;;;;;;22.37;14.10;;;;;;;;;;774259;179;919740;-64
2024/01/20 04:47:56;;;;;;;21.40;14.77;;;;;;;;;;776054;179;918274;-65
2024/01/20 04:50:21;;;;;;;24.03;13.60;;;;;;;;;;780389;179;918549;-64
2024/01/20 04:52:47;;;;;;;23.13;13.80;;;;;;;;;;770907;179;1021274;-64
2024/01/20 04:55:13;;;;;;;28.30;14.70;;;;;;;;;;759620;179;920104;-64
2024/01/20 04:57:39;;;;;;;28.40;14.67;;;;;;;;;;778007;180;940318;-64
2024/01/20 05:00:06;;;;;;;26.97;14.30;;;;;;;;;;773870;179;918328;-64
2024/01/20 05:02:31;;;;;;;24.43;13.43;;;;;;;;;;775686;179;918408;-64
2024/01/20 05:04:57;;;;;;;26.20;13.48;;;;;;;;;;776648;180;921920;-65
2024/01/20 05:07:23;;;;;;;22.97;13.60;;;;;;;;;;770074;178;919302;-64
2024/01/20 05:09:49;;;;;;;20.27;12.90;;;;;;;;;;764055;180;913915;-65
2024/01/20 05:12:15;;;;;;;27.53;12.83;;;;;;;;;;773472;179;911202;-65
2024/01/20 05:14:41;;;;;;;19.63;12.20;;;;;;;;;;779268;177;919104;-65
2024/01/20 05:17:07;;;;;;;19.40;11.60;;;;;;;;;;771430;179;921937;-65
2024/01/20 05:19:32;;;;;;;20.40;10.80;;;;;;;;;;773357;179;920134;-64
2024/01/20 05:21:58;;;;;;;21.23;11.70;;;;;;;;;;780206;179;815175;-64
2024/01/20 05:24:24;;;;;;;24.00;12.97;;;;;;;;;;773533;179;919283;-65
2024/01/20 05:26:50;;;;;;;17.27;11.47;;;;;;;;;;772240;180;935211;-66
2024/01/20 05:29:16;;;;;;;22.73;12.90;;;;;;;;;;777381;179;1021085;-65
2024/01/20 05:31:42;;;;;;;22.08;12.68;;;;;;;;;;772147;180;929048;-64
2024/01/20 05:34:07;;;;;;;22.00;11.83;;;;;;;;;;773054;180;918117;-65
2024/01/20 05:36:33;;;;;;;20.75;11.35;;;;;;;;;;776467;180;918349;-65
2024/01/20 05:38:59;;;;;;;15.10;10.47;;;;;;;;;;769593;180;919186;-65
2024/01/20 05:41:25;;;;;;;20.50;10.60;;;;;;;;;;761438;180;1021124;-65
2024/01/20 05:43:51;;;;;;;22.97;11.80;;;;;;;;;;772280;180;944999;-65
2024/01/20 05:46:17;;;;;;;24.20;13.30;;;;;;;;;;778142;180;918992;-64
2024/01/20 05:48:42;;;;;;;16.23;10.40;;;;;;;;;;772682;180;919532;-64
2024/01/20 05:51:08;;;;;;;17.47;9.70;;;;;;;;;;771862;180;1020996;-65
2024/01/20 05:53:34;;;;;;;20.88;12.18;;;;;;;;;;779602;178;918065;-65
2024/01/20 05:56:00;;;;;;;16.60;11.17;;;;;;;;;;761397;180;917908;-65
2024/01/20 05:58:26;;;;;;;19.30;12.10;;;;;;;;;;774400;178;918670;-64
2024/01/20 06:00:52;;;;;;;19.67;11.90;;;;;;;;;;779572;179;918387;-64
2024/01/20 06:03:18;;;;;;;22.60;12.90;;;;;;;;;;772335;179;919482;-64
2024/01/20 06:05:43;;;;;;;22.42;12.60;;;;;;;;;;773468;179;920447;-64
2024/01/20 06:08:09;;;;;;;17.70;11.20;;;;;;;;;;773786;179;918417;-67
2024/01/20 06:10:35;;;;;;;22.62;11.18;;;;;;;;;;775622;179;918578;-65
2024/01/20 06:13:01;;;;;;;22.07;14.00;;;;;;;;;;773198;177;921273;-64
2024/01/20 06:15:27;;;;;;;22.53;13.13;;;;;;;;;;765420;180;953511;-64
2024/01/20 06:17:53;;;;;;;20.40;13.90;;;;;;;;;;767827;180;920569;-65
2024/01/20 06:20:19;;;;;;;25.73;14.30;;;;;;;;;;773713;179;922902;-64
2024/01/20 06:22:44;;;;;;;22.75;13.85;;;;;;;;;;774248;179;920738;-64
2024/01/20 06:25:11;;;;;;;19.17;11.23;;;;;;;;;;777014;180;914556;-64
2024/01/20 06:27:36;;;;;;;18.43;11.60;;;;;;;;;;771935;179;919312;-64
2024/01/20 06:30:03;;;;;;;20.10;12.57;;;;;;;;;;772229;179;921058;-64
2024/01/20 06:32:28;;;;;;;18.17;10.87;;;;;;;;;;777884;180;918805;-64
2024/01/20 06:34:54;;;;;;;18.93;11.80;;;;;;;;;;771549;180;919283;-64
2024/01/20 06:37:20;;;;;;;18.13;12.37;;;;;;;;;;771891;180;918595;-66
2024/01/20 06:39:46;;;;;;;23.63;11.73;;;;;;;;;;772823;179;918966;-64
2024/01/20 06:42:12;;;;;;;19.70;10.50;;;;;;;;;;779762;179;902966;-64
2024/01/20 06:44:37;;;;;;;18.00;10.50;;;;;;;;;;772279;180;921857;-64
2024/01/20 06:47:03;;;;;;;24.13;11.47;;;;;;;;;;772051;180;918567;-64
2024/01/20 06:49:29;;;;;;;21.37;11.50;;;;;;;;;;776570;180;919952;-65
2024/01/20 06:51:55;;;;;;;20.00;11.88;;;;;;;;;;772005;179;919421;-64
2024/01/20 06:54:21;;;;;;;23.63;12.00;;;;;;;;;;770649;180;1021832;-64
2024/01/20 06:56:47;;;;;;;22.37;13.20;;;;;;;;;;777045;179;922117;-64
2024/01/20 06:59:13;;;;;;;16.43;11.13;;;;;;;;;;772687;179;918195;-64
2024/01/20 07:01:38;;;;;;;18.50;11.33;;;;;;;;;;772736;179;919143;-64
2024/01/20 07:04:04;;;;;;;17.67;10.20;;;;;;;;;;772287;179;916602;-64
2024/01/20 07:06:30;;;;;;;23.77;11.13;;;;;;;;;;776997;180;914926;-63
2024/01/20 07:08:56;;;;;;;15.10;9.57;;;;;;;;;;774706;179;926699;-65
2024/01/20 07:11:22;;;;;;;19.17;12.67;;;;;;;;;;773437;179;919418;-64
2024/01/20 07:13:48;;;;;;;19.50;10.13;;;;;;;;;;779383;179;933561;-64
2024/01/20 07:16:14;;;;;;;18.47;13.00;;;;;;;;;;772311;179;934292;-63
2024/01/20 07:18:39;;;;;;;19.73;10.60;;;;;;;;;;772486;179;943415;-63
2024/01/20 07:21:05;;;;;;;21.83;12.00;;;;;;;;;;778402;179;906360;-63
2024/01/20 07:23:31;;;;;;;27.23;11.30;;;;;;;;;;774419;179;915925;-64
2024/01/20 07:25:58;;;;;;;22.80;12.70;;;;;;;;;;774128;179;936445;-63
2024/01/20 07:28:23;;;;;;;18.63;11.20;;;;;;;;;;779044;179;930140;-64
2024/01/20 07:30:49;;;;;;;21.42;11.23;;;;;;;;;;771429;179;919404;-63
2024/01/20 07:33:15;;;;;;;24.60;10.33;;;;;;;;;;772254;179;920093;-65
2024/01/20 07:35:40;;;;;;;23.80;12.67;;;;;;;;;;771835;179;918646;-64
2024/01/20 07:38:06;;;;;;;21.25;12.02;;;;;;;;;;773489;179;1738390;-64
2024/01/20 07:40:32;;;;;;;19.80;10.73;;;;;;;;;;772668;179;920237;-64
2024/01/20 07:42:58;;;;;;;20.17;10.95;;;;;;;;;;774710;177;919468;-65
2024/01/20 07:45:26;;;;;;;22.40;11.13;;;;;;;;;;778888;180;920028;-64
2024/01/20 07:47:50;;;;;;;20.10;9.90;;;;;;;;;;776115;180;917362;-64
2024/01/20 07:50:16;;;;;;;21.57;11.53;;;;;;;;;;776938;180;627817;-64
2024/01/20 07:52:42;;;;;;;19.30;10.10;;;;;;;;;;779637;180;619853;-64
2024/01/20 07:55:08;;;;;;;15.93;9.67;;;;;;;;;;775809;177;800773;-65
2024/01/20 07:57:33;;;;;;;18.30;9.60;;;;;;;;;;775013;177;651588;-64
2024/01/20 07:59:59;;;;;;;18.10;9.27;;;;;;;;;;775928;179;728653;-65
2024/01/20 08:02:25;;;;;;;20.97;11.00;;;;;;;;;;779070;177;642144;-64
2024/01/20 08:04:51;;;;;;;20.40;11.90;;;;;;;;;;776821;180;687280;-64
2024/01/20 08:07:17;;;;;;;16.27;9.77;;;;;;;;;;775913;179;626213;-65
2024/01/20 08:09:43;;;;;;;20.15;11.50;;;;;;;;;;768746;181;632546;-64
2024/01/20 08:12:08;;;;;;;19.77;9.30;;;;;;;;;;778182;179;652168;-65
2024/01/20 08:14:34;;;;;;;23.70;10.83;;;;;;;;;;777178;179;628775;-65
2024/01/20 08:17:00;;;;;;;23.47;11.03;;;;;;;;;;780045;180;619065;-65
2024/01/20 08:19:26;;;;;;;15.73;10.27;;;;;;;;;;777406;178;916333;-65
2024/01/20 08:21:52;;;;;;;26.80;12.03;;;;;;;;;;765066;182;643132;-65
2024/01/20 08:24:18;;;;;;;18.62;10.82;;;;;;;;;;780388;179;669493;-65
2024/01/20 08:26:45;;;;;;;17.57;11.23;;;;;;;;;;771886;180;616718;-65
2024/01/20 08:29:10;;;;;;;16.50;9.27;;;;;;;;;;770638;180;923441;-65
2024/01/20 08:31:36;;;;;;;15.97;9.87;;;;;;;;;;776705;179;917592;-65
2024/01/20 08:34:02;;;;;;;18.20;9.20;;;;;;;;;;779765;179;918357;-65
2024/01/20 08:36:27;;;;;;;20.93;12.80;;;;;;;;;;777962;176;614538;-66
2024/01/20 08:38:53;;;;;;;18.83;10.90;;;;;;;;;;765748;182;639959;-66
2024/01/20 08:41:19;;;;;;;21.23;8.97;;;;;;;;;;779854;179;624668;-66
2024/01/20 08:43:45;;;;;;;21.27;10.60;;;;;;;;;;774527;179;920199;-65
2024/01/20 08:46:11;;;;;;;19.60;11.03;;;;;;;;;;777662;179;613878;-65
2024/01/20 08:48:37;;;;;;;23.47;11.07;;;;;;;;;;780518;179;637160;-67
2024/01/20 08:51:03;;;;;;;17.47;10.27;;;;;;;;;;776717;178;650174;-66
2024/01/20 08:53:29;;;;;;;25.20;11.17;;;;;;;;;;769896;178;630497;-66
2024/01/20 08:55:54;;;;;;;18.40;9.40;;;;;;;;;;766337;180;634144;-66
2024/01/20 08:58:20;;;;;;;21.90;9.93;;;;;;;;;;781328;180;625049;-65
2024/01/20 09:00:46;;;;;;;19.23;9.90;;;;;;;;;;779006;179;628657;-66
2024/01/20 09:03:12;;;;;;;13.93;8.77;;;;;;;;;;775926;179;639823;-66
2024/01/20 09:05:38;;;;;;;20.23;11.83;;;;;;;;;;780927;179;617475;-66
2024/01/20 09:08:05;;;;;;;24.57;11.70;;;;;;;;;;771050;180;919660;-65
2024/01/20 09:10:30;;;;;;;19.63;10.23;;;;;;;;;;772734;180;920145;-65
2024/01/20 09:12:55;;;;;;;17.33;10.37;;;;;;;;;;777485;180;918716;-66
2024/01/20 09:15:21;;;;;;;24.70;11.77;;;;;;;;;;770659;180;919472;-65
2024/01/20 09:17:47;;;;;;;19.87;10.50;;;;;;;;;;771506;180;918383;-66
2024/01/20 09:20:13;;;;;;;19.85;9.57;;;;;;;;;;774758;180;918932;-66
2024/01/20 09:22:39;;;;;;;17.40;10.20;;;;;;;;;;775092;180;919480;-67
2024/01/20 09:25:06;;;;;;;19.13;9.63;;;;;;;;;;773447;180;1018945;-66
2024/01/20 09:27:33;;;;;;;18.63;9.60;;;;;;;;;;770985;180;919056;-66
2024/01/20 09:29:59;;;;;;;19.07;8.63;;;;;;;;;;776665;180;1018454;-67
2024/01/20 09:32:26;;;;;;;14.03;8.87;;;;;;;;;;773497;179;917941;-67
2024/01/20 09:34:51;;;;;;;21.90;10.60;;;;;;;;;;774591;179;920223;-66
2024/01/20 09:37:17;;;;;;;19.93;9.90;;;;;;;;;;780257;179;924437;-66
2024/01/20 09:39:43;;;;;;;19.97;9.10;;;;;;;;;;774664;178;1021097;-67
2024/01/20 09:42:09;;;;;;;19.80;8.90;;;;;;;;;;770291;179;918379;-67
2024/01/20 09:44:35;;;;;;;17.63;10.17;;;;;;;;;;777417;179;924037;-67
2024/01/20 09:47:01;;;;;;;16.60;9.03;;;;;;;;;;779688;179;816556;-67
2024/01/20 09:49:27;;;;;;;20.23;9.63;;;;;;;;;;775028;179;917916;-67
2024/01/20 09:51:52;;;;;;;13.30;8.07;;;;;;;;;;773429;180;628794;-68
2024/01/20 09:54:18;;;;;;;15.30;9.03;;;;;;;;;;781200;178;628144;-67
2024/01/20 09:56:44;;;;;;;18.87;8.37;;;;;;;;;;763665;182;1019641;-67
2024/01/20 09:59:10;;;;;;;12.40;7.90;;;;;;;;;;774013;180;918835;-68
2024/01/20 10:01:36;;;;;;;20.23;10.57;;;;;;;;;;781121;180;628973;-67
2024/01/20 10:04:04;;;;;;;19.97;10.97;;;;;;;;;;775637;179;919322;-66
2024/01/20 10:06:30;;;;;;;17.37;10.47;;;;;;;;;;768374;179;920168;-68
2024/01/20 10:08:56;;;;;;;16.12;10.25;;;;;;;;;;770959;180;919405;-67
2024/01/20 10:11:22;;;;;;;17.87;9.30;;;;;;;;;;771629;179;919964;-67
2024/01/20 10:13:48;;;;;;;18.37;9.93;;;;;;;;;;772684;177;919074;-68
2024/01/20 10:16:14;;;;;;;17.60;8.90;;;;;;;;;;775252;179;919837;-68
2024/01/20 10:18:39;;;;;;;15.73;8.60;;;;;;;;;;781820;180;922300;-68
2024/01/20 10:21:05;;;;;;;16.10;9.77;;;;;;;;;;775849;179;919572;-68
2024/01/20 10:23:38;;;;;;;22.60;10.23;;;;;;;;;;773277;179;919353;-68
2024/01/20 10:26:04;;;;;;;18.67;8.90;;;;;;;;;;773199;179;925409;-69
2024/01/20 10:28:30;;;;;;;14.37;9.00;;;;;;;;;;780335;180;914554;-68
2024/01/20 10:30:56;;;;;;;16.67;8.07;;;;;;;;;;769519;180;919074;-68
2024/01/20 10:33:22;;;;;;;16.60;8.37;;;;;;;;;;770657;180;924280;-68
2024/01/20 10:35:47;;;;;;;16.87;9.30;;;;;;;;;;781130;180;919345;-69
2024/01/20 10:38:14;;;;;;;14.03;9.20;;;;;;;;;;774306;179;929252;-69
2024/01/20 10:40:41;;;;;;;18.37;10.60;;;;;;;;;;769344;180;913549;-69
2024/01/20 10:43:06;;;;;;;21.67;9.07;;;;;;;;;;782335;179;900057;-69
2024/01/20 10:45:32;;;;;;;17.30;7.70;;;;;;;;;;776757;178;917192;-68
2024/01/20 10:47:58;;;;;;;16.13;8.63;;;;;;;;;;776390;179;1124128;-69
2024/01/20 10:50:24;;;;;;;24.70;9.97;;;;;;;;;;777802;178;912649;-68
2024/01/20 10:52:50;;;;;;;22.33;9.20;;;;;;;;;;773779;180;908041;-69
2024/01/20 10:55:16;;;;;;;19.30;9.60;;;;;;;;;;773383;179;915501;-69
2024/01/20 10:57:42;;;;;;;16.63;8.67;;;;;;;;;;777868;179;645047;-69
2024/01/20 11:00:10;;;;;;;25.67;9.03;;;;;;;;;;781092;179;623461;-68
2024/01/20 11:02:34;;;;;;;16.20;9.27;;;;;;;;;;772595;179;911505;-68
2024/01/20 11:04:59;;;;;;;13.83;7.50;;;;;;;;;;776932;179;624002;-69
2024/01/20 11:07:27;;;;;;;17.47;9.03;;;;;;;;;;781913;179;635575;-69
2024/01/20 11:09:55;;;;;;;23.70;8.90;;;;;;;;;;776847;179;913833;-69
2024/01/20 11:12:20;;;;;;;16.67;9.03;;;;;;;;;;778669;180;628801;-69
2024/01/20 11:14:46;;;;;;;22.40;9.10;;;;;;;;;;775934;179;918381;-68
2024/01/20 11:17:12;;;;;;;17.20;8.05;;;;;;;;;;777529;179;1019368;-68
2024/01/20 11:19:38;;;;;;;16.80;8.70;;;;;;;;;;772299;177;1019460;-69
2024/01/20 11:22:04;;;;;;;15.20;6.87;;;;;;;;;;780626;179;877585;-70
2024/01/20 11:24:35;;;;;;;15.77;5.85;;;;;;;;;;782488;180;713845;-70
2024/01/20 11:27:01;;;;;;;16.57;9.03;;;;;;;;;;780367;179;632662;-69
2024/01/20 11:29:27;;;;;;;14.70;7.93;;;;;;;;;;781019;180;626606;-69
2024/01/20 11:31:53;;;;;;;14.40;8.73;;;;;;;;;;775412;180;918128;-71
2024/01/20 11:34:19;;;;;;;18.00;8.73;;;;;;;;;;777478;180;918379;-70
2024/01/20 11:36:45;;;;;;;16.23;8.07;;;;;;;;;;773426;179;1020725;-70
2024/01/20 11:39:11;;;;;;;20.20;9.40;;;;;;;;;;773387;179;905477;-69
2024/01/20 11:41:37;;;;;;;16.20;9.17;;;;;;;;;;777266;180;919121;-70
2024/01/20 11:44:03;;;;;;;24.00;10.23;;;;;;;;;;771239;180;1023872;-69
2024/01/20 11:46:28;;;;;;;12.57;7.57;;;;;;;;;;775430;180;772357;-69
2024/01/20 11:48:54;;;;;;;12.83;7.30;;;;;;;;;;781340;179;624039;-69
2024/01/20 11:51:20;;;;;;;12.60;7.50;;;;;;;;;;760478;181;916602;-69
2024/01/20 11:53:46;;;;;;;14.90;8.40;;;;;;;;;;771727;179;1115176;-69
2024/01/20 11:56:12;;;;;;;22.30;7.50;;;;;;;;;;783165;178;644965;-69
2024/01/20 11:58:38;;;;;;;14.80;8.03;;;;;;;;;;775207;179;917717;-70
2024/01/20 12:01:04;;;;;;;19.40;8.40;;;;;;;;;;772035;179;1023304;-70
2024/01/20 12:03:29;;;;;;;16.30;8.07;;;;;;;;;;775204;179;906147;-68
2024/01/20 12:05:55;;;;;;;12.83;7.00;;;;;;;;;;765528;183;627990;-69
2024/01/20 12:08:21;;;;;;;20.40;9.40;;;;;;;;;;760350;183;629780;-69
2024/01/20 12:10:47;;;;;;;11.90;7.90;;;;;;;;;;738733;188;1018564;-70
2024/01/20 12:13:13;;;;;;;12.77;7.53;;;;;;;;;;756617;184;901974;-69
2024/01/20 12:15:39;;;;;;;17.83;8.73;;;;;;;;;;770863;178;1003692;-72
2024/01/20 12:18:05;;;;;;;13.40;8.10;;;;;;;;;;765365;180;964680;-71
2024/01/20 12:20:31;;;;;;;11.83;6.90;;;;;;;;;;779252;179;769548;-70
2024/01/20 12:22:58;;;;;;;17.53;8.60;;;;;;;;;;773595;179;828812;-70
2024/01/20 12:25:25;;;;;;;13.90;9.27;;;;;;;;;;772420;179;830981;-69
2024/01/20 12:27:51;;;;;;;19.07;8.20;;;;;;;;;;776449;179;737960;-70
2024/01/20 12:30:17;;;;;;;16.37;9.00;;;;;;;;;;777038;179;921461;-70
2024/01/20 12:32:43;;;;;;;18.90;10.00;;;;;;;;;;773108;180;917008;-73
2024/01/20 12:35:09;;;;;;;20.37;9.83;;;;;;;;;;773477;180;804231;-71
2024/01/20 12:37:35;;;;;;;18.67;10.10;;;;;;;;;;768046;181;715571;-70
2024/01/20 12:40:01;;;;;;;21.57;8.10;;;;;;;;;;773608;180;814741;-70
2024/01/20 12:42:26;;;;;;;17.48;7.95;;;;;;;;;;771453;180;917555;-70
2024/01/20 12:44:54;;;;;;;18.70;10.27;;;;;;;;;;779553;180;680728;-70
2024/01/20 12:47:18;;;;;;;19.50;11.43;;;;;;;;;;774051;180;817112;-70
2024/01/20 12:49:44;;;;;;;16.33;8.30;;;;;;;;;;776058;180;713274;-71
2024/01/20 12:52:10;;;;;;;15.90;8.50;;;;;;;;;;772258;180;815621;-70
2024/01/20 12:54:36;;;;;;;20.03;10.73;;;;;;;;;;777744;180;746598;-71
2024/01/20 12:57:01;;;;;;;19.00;10.27;;;;;;;;;;770184;180;1021338;-70
2024/01/20 12:59:27;;;;;;;15.53;8.30;;;;;;;;;;771381;179;919320;-70
2024/01/20 13:01:53;;;;;;;19.63;9.43;;;;;;;;;;779120;180;916151;-69
2024/01/20 13:04:19;;;;;;;19.23;11.07;;;;;;;;;;769066;180;919091;-70
2024/01/20 13:06:45;;;;;;;18.00;10.40;;;;;;;;;;777140;178;631081;-70
2024/01/20 13:09:12;;;;;;;26.07;10.10;;;;;;;;;;769111;181;624745;-70
2024/01/20 13:11:37;;;;;;;21.70;10.50;;;;;;;;;;779820;179;651544;-70
2024/01/20 13:14:03;;;;;;;25.83;12.13;;;;;;;;;;777118;179;625303;-70
2024/01/20 13:16:29;;;;;;;19.80;11.13;;;;;;;;;;778879;179;919460;-69
2024/01/20 13:18:55;;;;;;;24.20;11.73;;;;;;;;;;777062;179;982595;-69
2024/01/20 13:21:22;;;;;;;19.60;12.30;;;;;;;;;;776636;179;914406;-69
2024/01/20 13:23:47;;;;;;;18.57;10.80;;;;;;;;;;774986;179;914271;-69
2024/01/20 13:26:13;;;;;;;20.43;11.23;;;;;;;;;;779498;179;1005958;-69
2024/01/20 13:28:38;;;;;;;26.63;14.00;;;;;;;;;;777447;179;914976;-69
2024/01/20 13:31:04;;;;;;;30.80;12.20;;;;;;;;;;773484;179;919573;-69
2024/01/20 13:33:30;;;;;;;21.67;11.87;;;;;;;;;;777254;180;918004;-69
2024/01/20 13:35:56;;;;;;;22.93;13.63;;;;;;;;;;772268;179;918726;-68
2024/01/20 13:38:22;;;;;;;28.85;13.20;;;;;;;;;;770932;179;970449;-68
2024/01/20 13:40:48;;;;;;;19.70;11.97;;;;;;;;;;781932;179;919128;-69
2024/01/20 13:43:14;;;;;;;18.57;11.40;;;;;;;;;;770469;177;919092;-68
2024/01/20 13:45:40;;;;;;;23.47;14.33;;;;;;;;;;760201;180;1124053;-68
2024/01/20 13:48:06;;;;;;;25.50;13.57;;;;;;;;;;776377;180;918010;-68
2024/01/20 13:50:32;;;;;;;24.93;12.63;;;;;;;;;;777323;180;919423;-67
2024/01/20 13:52:57;;;;;;;25.55;13.10;;;;;;;;;;770880;180;921208;-68
2024/01/20 13:55:23;;;;;;;27.33;13.30;;;;;;;;;;771274;180;918670;-69
2024/01/20 13:57:49;;;;;;;24.67;12.50;;;;;;;;;;781900;177;635724;-69